Latest Weather Observations for Maroochydore

IDQ60801

Issued at 6:32 pm EST Tuesday 3 May 2016 (issued every 30 minutes, with the page automatically refreshed every 10 minutes)

About weather observations | Map of weather stations | Latest weather observations for QLD | Other Formats
Station Details ID: 040861 Name: SUNSHINE COAST AIRPORT Lat: -26.60 Lon: 153.09 Height: 3.3 m
Data from the previous 72 hours. | See also: Recent months at Maroochydore
Date/Time
EST
Temp
°C
App
Temp
°C
Dew
Point
Rel
Hum
%
Delta-T
°C
Wind Press
QNH
hPa
Press
MSL
hPa
Rain
since 9 am
mm
Dir
 
Spd
km/h
Gust
km/h
Spd
kts
Gust
kts
03/06:00pm 22.9 25.0 21.0 89 1.2 NE 11 13 6 7 1011.8 1011.8 0.0
03/05:30pm 23.0 24.7 20.9 88 1.4 NE 13 17 7 9 1011.4 - 0.0
03/05:00pm 23.4 25.5 20.9 86 1.6 ENE 11 13 6 7 1011.1 - 0.0
03/04:30pm 23.6 25.2 20.7 84 1.9 ENE 13 17 7 9 1010.9 - 0.0
03/04:00pm 24.3 25.7 20.4 79 2.5 ENE 13 17 7 9 1010.7 - 0.0
03/03:30pm 25.2 26.8 20.7 76 2.9 E 13 17 7 9 1010.6 - 0.0
03/03:00pm 25.7 27.2 20.5 73 3.4 ENE 13 17 7 9 1010.6 1010.6 0.0
03/02:30pm 26.4 27.9 21.2 73 3.4 NE 15 19 8 10 1010.3 - 0.0
03/02:00pm 24.7 26.1 20.4 77 2.8 ENE 13 17 7 9 1010.6 - 0.0
03/01:30pm 25.8 27.3 20.6 73 3.4 E 13 19 7 10 1010.8 - 0.0
03/01:00pm 25.9 27.7 21.1 75 3.2 E 13 17 7 9 1011.2 - 0.0
03/12:30pm 26.0 27.8 21.9 78 2.7 E 15 19 8 10 1011.6 - 0.0
03/12:00pm 25.7 27.4 21.6 78 2.7 E 15 17 8 9 1012.1 1012.1 0.0
03/11:30am 25.3 27.1 21.2 78 2.7 E 13 17 7 9 1012.7 - 0.0
03/11:00am 25.0 26.7 20.9 78 2.7 E 13 17 7 9 1013.1 - 0.0
03/10:30am 24.5 26.5 20.8 80 2.4 E 11 15 6 8 1013.6 - 0.0
03/10:07am 24.9 27.6 21.4 81 2.3 ENE 9 13 5 7 1013.7 - 0.0
03/10:00am 24.6 27.0 20.9 80 2.4 ENE 9 11 5 6 1013.8 - 0.0
03/09:42am 24.7 27.4 21.4 82 2.2 ENE 9 13 5 7 1014.0 - 0.0
03/09:30am 24.0 27.6 20.5 81 2.3 W 2 6 1 3 1014.0 - 0.0
03/09:00am 23.7 28.0 22.0 90 1.1 NW 2 9 1 5 1014.1 1014.1 14.0
03/08:30am 22.8 26.2 22.0 95 0.5 WNW 7 9 4 5 1014.3 - 14.0
03/08:00am 21.7 24.3 21.2 97 0.3 W 9 11 5 6 1014.4 - 14.0
03/07:30am 20.3 22.9 20.0 98 0.2 WNW 6 7 3 4 1014.2 - 14.0
03/07:00am 20.0 22.2 19.7 98 0.2 WSW 7 9 4 5 1014.1 - 14.0
03/06:30am 19.8 23.2 19.3 97 0.3 CALM 0 0 0 0 1013.9 - 14.0
03/06:00am 19.8 23.2 19.3 97 0.3 CALM 0 0 0 0 1013.5 1013.5 14.0
03/05:30am 20.0 23.5 19.5 97 0.3 CALM 0 0 0 0 1013.4 - 14.0
03/05:00am 20.2 22.4 19.7 97 0.3 W 7 9 4 5 1013.2 - 14.0
03/04:30am 20.3 22.6 19.8 97 0.3 SW 7 9 4 5 1013.1 - 14.0
03/04:00am 20.4 22.7 19.9 97 0.3 W 7 9 4 5 1012.9 - 14.0
03/03:30am 20.3 22.8 19.8 97 0.3 W 6 7 3 4 1012.6 - 14.0
03/03:00am 20.6 23.0 20.1 97 0.3 W 7 9 4 5 1013.0 1013.0 14.0
03/02:30am 20.8 24.7 20.3 97 0.3 CALM 0 0 0 0 1013.6 - 14.0
03/02:00am 20.7 22.8 20.2 97 0.3 S 9 13 5 7 1014.1 - 14.0
03/01:47am 20.9 22.3 20.4 97 0.3 SSE 13 17 7 9 1014.3 - 14.0
03/01:41am 20.9 22.3 20.4 97 0.3 S 13 20 7 11 1014.4 - 14.0
03/01:30am 21.0 20.7 20.3 96 0.4 S 22 30 12 16 1014.5 - 13.4
03/01:14am 22.1 23.0 21.6 97 0.3 S 19 20 10 11 1014.8 - 8.2
03/01:03am 22.2 24.7 21.7 97 0.3 SW 11 17 6 9 1015.0 - 6.6
03/01:02am 22.2 24.7 21.7 97 0.3 SW 11 13 6 7 1015.0 - 6.6
03/01:00am 22.2 25.1 21.7 97 0.3 WSW 9 13 5 7 1015.0 - 6.6
03/12:53am 22.1 24.5 21.6 97 0.3 WNW 11 13 6 7 1014.8 - 6.2
03/12:41am 22.1 24.5 21.6 97 0.3 WNW 11 15 6 8 1014.7 - 5.2
03/12:30am 22.1 24.1 21.6 97 0.3 NW 13 17 7 9 1014.9 - 4.0
03/12:16am 22.1 24.4 21.4 96 0.5 WNW 11 13 6 7 1014.7 - 1.8
03/12:00am 22.2 25.9 21.5 96 0.5 W 4 9 2 5 1014.7 1014.7 0.8
 
Date/Time
EST
Temp
°C
App
Temp
°C
Dew
Point
Rel
Hum
%
Delta-T
°C
Wind Press
QNH
hPa
Press
MSL
hPa
Rain
since 9 am
mm
Dir
 
Spd
km/h
Gust
km/h
Spd
kts
Gust
kts
02/11:30pm 22.1 26.5 21.4 96 0.5 CALM 0 0 0 0 1014.5 - 0.4
02/11:00pm 22.3 26.8 21.5 95 0.5 CALM 0 0 0 0 1014.9 - 0.2
02/10:30pm 22.3 26.8 21.5 95 0.5 CALM 0 0 0 0 1015.7 - 0.2
02/10:20pm 22.3 26.8 21.5 95 0.5 CALM 0 0 0 0 1015.7 - 0.2
02/10:00pm 22.3 26.8 21.5 95 0.5 CALM 0 0 0 0 1015.6 - 0.2
02/09:30pm 22.4 26.9 21.6 95 0.5 CALM 0 0 0 0 1015.4 - 0.2
02/09:13pm 22.2 26.4 21.0 93 0.8 CALM 0 0 0 0 1015.1 - 0.2
02/09:00pm 22.4 26.7 21.2 93 0.8 CALM 0 0 0 0 1015.2 1015.2 0.2
02/08:30pm 22.6 26.9 21.2 92 0.9 CALM 0 7 0 4 1015.4 - 0.2
02/08:00pm 23.2 26.3 21.5 90 1.1 ESE 7 11 4 6 1015.0 - 0.2
02/07:30pm 22.8 25.5 21.4 92 0.9 ESE 9 13 5 7 1014.9 - 0.2
02/07:00pm 22.7 27.2 21.5 93 0.8 CALM 0 0 0 0 1015.0 - 0.2
02/06:30pm 22.7 27.0 21.2 91 1.0 CALM 0 0 0 0 1015.0 - 0.2
02/06:00pm 23.1 27.6 21.5 91 1.1 CALM 0 0 0 0 1014.5 1014.5 0.2
02/05:30pm 23.2 27.7 21.5 90 1.1 CALM 0 0 0 0 1014.3 - 0.2
02/05:00pm 23.6 28.1 21.5 88 1.4 CALM 0 6 0 3 1014.0 - 0.2
02/04:30pm 24.2 27.9 21.5 85 1.8 ESE 4 9 2 5 1013.8 - 0.2
02/04:00pm 24.7 27.5 21.6 83 2.1 E 9 11 5 6 1013.4 - 0.2
02/03:30pm 25.0 27.5 21.7 82 2.2 E 11 13 6 7 1013.3 - 0.2
02/03:00pm 25.5 27.4 21.4 78 2.7 E 13 17 7 9 1013.2 1013.2 0.2
02/02:30pm 25.9 28.3 21.6 77 2.9 E 11 17 6 9 1013.6 - 0.2
02/02:00pm 26.1 28.4 22.0 78 2.7 E 13 17 7 9 1013.6 - 0.2
02/01:30pm 26.0 27.4 21.9 78 2.7 E 17 20 9 11 1013.8 - 0.2
02/01:00pm 25.8 27.1 20.8 74 3.3 ESE 15 20 8 11 1014.4 - 0.2
02/12:30pm 26.2 27.5 21.6 76 3.1 ESE 17 20 9 11 1014.7 - 0.2
02/12:00pm 26.2 27.4 21.4 75 3.2 ESE 17 22 9 12 1015.0 1015.0 0.2
02/11:30am 26.6 28.1 22.0 76 3.1 ESE 17 22 9 12 1015.4 - 0.2
02/11:00am 25.9 27.3 21.1 75 3.2 ESE 15 20 8 11 1015.9 - 0.2
02/10:30am 25.9 27.5 20.7 73 3.4 SE 13 19 7 10 1016.2 - 0.2
02/10:00am 25.3 26.9 20.8 76 3.0 ESE 13 15 7 8 1016.3 - 0.0
02/09:30am 25.0 28.2 21.7 82 2.2 SSE 7 11 4 6 1016.8 - 0.0
02/09:00am 23.4 25.8 20.9 86 1.6 S 9 13 5 7 1016.9 1016.9 9.0
02/08:30am 22.4 25.2 21.6 95 0.5 SSW 9 11 5 6 1016.7 - 9.0
02/08:00am 21.4 23.8 20.9 97 0.3 S 9 13 5 7 1016.7 - 9.0
02/07:30am 20.7 22.5 20.4 98 0.2 SSW 11 15 6 8 1016.6 - 9.0
02/07:00am 20.0 22.2 19.7 98 0.2 S 7 11 4 6 1016.4 - 9.0
02/06:30am 19.7 20.7 19.4 98 0.2 S 13 17 7 9 1016.4 - 9.0
02/06:00am 19.2 22.4 18.9 98 0.2 CALM 0 0 0 0 1015.9 1015.9 9.0
02/05:30am 19.2 21.3 18.9 98 0.2 SW 6 7 3 4 1015.4 - 9.0
02/05:04am 19.1 22.3 18.8 98 0.2 CALM 0 0 0 0 1015.2 - 9.0
02/05:00am 19.2 22.4 18.9 98 0.2 CALM 0 0 0 0 1015.2 - 9.0
02/04:58am 19.1 22.3 18.8 98 0.2 CALM 0 0 0 0 1015.2 - 9.0
02/04:30am 19.4 21.4 19.1 98 0.2 SW 7 9 4 5 1014.9 - 9.0
02/04:10am 19.5 21.1 19.2 98 0.2 SW 9 15 5 8 1014.8 - 9.0
02/04:04am 19.5 20.4 19.2 98 0.2 SW 13 15 7 8 1014.7 - 9.0
02/04:00am 19.5 20.4 19.2 98 0.2 WSW 13 15 7 8 1014.7 - 9.0
02/03:30am 19.2 21.6 18.9 98 0.2 NNW 4 7 2 4 1014.1 - 9.0
02/03:19am 19.2 21.3 18.9 98 0.2 NNW 6 9 3 5 1014.1 - 9.0
02/03:00am 19.1 21.1 18.8 98 0.2 NNW 6 7 3 4 1014.3 1014.3 9.0
02/02:51am 19.1 21.1 18.8 98 0.2 NW 6 9 3 5 1014.4 - 9.0
02/02:30am 19.2 21.3 18.9 98 0.2 W 6 7 3 4 1014.7 - 9.0
02/02:00am 19.7 21.8 19.4 98 0.2 W 7 11 4 6 1015.1 - 9.0
02/01:30am 19.7 23.1 19.4 98 0.2 CALM 0 0 0 0 1015.4 - 9.0
02/01:05am 19.7 23.1 19.4 98 0.2 CALM 0 6 0 3 1015.7 - 9.0
02/01:00am 19.6 22.2 19.3 98 0.2 W 4 7 2 4 1015.7 - 9.0
02/12:55am 19.7 22.0 19.4 98 0.2 W 6 9 3 5 1015.7 - 9.0
02/12:53am 19.8 22.1 19.5 98 0.2 W 6 9 3 5 1015.7 - 9.0
02/12:46am 19.9 22.3 19.6 98 0.2 W 6 13 3 7 1015.7 - 9.0
02/12:30am 19.4 22.6 18.9 97 0.3 CALM 0 0 0 0 1015.5 - 9.0
02/12:02am 20.1 23.6 19.6 97 0.3 CALM 0 0 0 0 1016.2 - 9.0
02/12:00am 20.0 23.5 19.5 97 0.3 CALM 0 0 0 0 1016.2 1016.2 9.0
 
Date/Time
EST
Temp
°C
App
Temp
°C
Dew
Point
Rel
Hum
%
Delta-T
°C
Wind Press
QNH
hPa
Press
MSL
hPa
Rain
since 9 am
mm
Dir
 
Spd
km/h
Gust
km/h
Spd
kts
Gust
kts
01/11:59pm 20.0 23.6 19.7 98 0.2 CALM 0 0 0 0 1016.2 - 9.0
01/11:30pm 20.3 24.0 20.0 98 0.2 CALM 0 0 0 0 1016.5 - 9.0
01/11:00pm 20.4 24.2 20.1 98 0.2 CALM 0 4 0 2 1016.8 - 9.0
01/10:30pm 20.6 23.1 20.3 98 0.2 WSW 7 13 4 7 1016.8 - 9.0
01/10:00pm 20.3 22.2 19.8 97 0.3 W 9 15 5 8 1016.9 - 9.0
01/09:31pm 20.7 23.2 20.2 97 0.3 SW 7 13 4 7 1016.9 - 9.0
01/09:30pm 20.8 23.3 20.3 97 0.3 SW 7 13 4 7 1016.9 - 9.0
01/09:25pm 20.8 23.0 20.3 97 0.3 SW 9 13 5 7 1017.0 - 9.0
01/09:00pm 20.6 22.9 19.9 96 0.4 W 7 9 4 5 1016.6 1016.6 9.0
01/08:41pm 20.8 23.2 20.1 96 0.4 W 7 7 4 4 1016.5 - 9.0
01/08:30pm 21.0 23.2 20.3 96 0.4 W 9 11 5 6 1016.5 - 9.0
01/08:00pm 21.8 24.7 21.1 96 0.5 SSW 7 9 4 5 1016.7 - 9.0
01/07:30pm 21.4 25.1 20.7 96 0.5 E 2 7 1 4 1016.4 - 9.0
01/07:06pm 21.2 25.1 20.4 95 0.5 CALM 0 0 0 0 1016.1 - 9.0
01/07:00pm 21.2 24.7 20.4 95 0.5 S 2 6 1 3 1016.0 - 9.0
01/06:30pm 21.4 25.3 20.4 94 0.6 CALM 0 0 0 0 1015.9 - 9.0
01/06:00pm 22.0 24.5 21.0 94 0.7 SSW 9 13 5 7 1015.9 1015.9 9.0
01/05:30pm 22.3 25.2 21.1 93 0.8 S 7 11 4 6 1015.7 - 9.0
01/05:00pm 22.5 25.2 21.3 93 0.8 S 9 13 5 7 1015.6 - 9.0
01/04:30pm 22.7 25.0 21.3 92 0.9 S 11 15 6 8 1015.5 - 9.0
01/04:24pm 22.7 25.4 21.3 92 0.9 S 9 15 5 8 1015.5 - 9.0
01/04:00pm 23.1 24.9 21.9 93 0.8 S 15 20 8 11 1015.5 - 9.0
01/03:30pm 23.1 24.1 22.1 94 0.7 S 20 26 11 14 1015.3 - 9.0
01/03:07pm 23.6 25.2 22.8 95 0.5 S 19 26 10 14 1014.8 - 9.0
01/03:00pm 23.3 25.1 22.5 95 0.5 S 17 26 9 14 1014.7 1014.7 9.0
01/02:30pm 23.2 24.4 22.2 94 0.7 S 19 24 10 13 1014.6 - 8.8
01/02:11pm 24.1 26.2 22.5 91 1.1 SSE 15 20 8 11 1014.5 - 8.4
01/02:00pm 24.8 27.1 22.7 88 1.4 SE 15 20 8 11 1014.5 - 8.4
01/01:30pm 24.4 27.2 22.3 88 1.4 SE 11 13 6 7 1014.6 - 8.4
01/01:00pm 25.0 28.2 23.1 89 1.3 SE 11 15 6 8 1014.9 - 8.4
01/12:30pm 24.0 27.1 22.8 93 0.8 ESE 11 13 6 7 1015.5 - 8.4
01/12:00pm 23.6 26.8 22.4 93 0.8 E 9 13 5 7 1016.0 1016.0 8.4
01/11:53am 23.6 26.6 22.6 94 0.7 E 11 13 6 7 1016.0 - 8.4
01/11:30am 23.9 27.3 23.4 97 0.3 ENE 11 15 6 8 1016.4 - 8.4
01/11:00am 23.6 26.5 23.1 97 0.3 NE 13 17 7 9 1017.0 - 8.0
01/10:59am 23.8 26.8 23.3 97 0.3 NE 13 17 7 9 1017.1 - 8.0
01/10:41am 23.2 26.2 22.7 97 0.3 NE 11 15 6 8 1017.5 - 8.0
01/10:36am 22.8 25.6 22.3 97 0.3 NNE 11 15 6 8 1017.5 - 8.0
01/10:30am 23.0 26.3 22.5 97 0.3 NNE 9 13 5 7 1017.6 - 8.0
01/10:11am 22.3 24.8 21.8 97 0.3 NNE 11 15 6 8 1018.1 - 7.6
01/10:00am 22.4 23.5 21.9 97 0.3 NNE 19 24 10 13 1018.3 - 7.0
01/09:30am 22.5 24.4 22.0 97 0.3 N 15 19 8 10 1018.5 - 3.4
01/09:00am 22.7 24.7 22.2 97 0.3 N 15 20 8 11 1018.5 1018.5 47.2
01/08:30am 22.9 25.8 22.4 97 0.3 N 11 15 6 8 1018.3 - 42.6
01/08:00am 22.8 24.4 22.1 96 0.5 N 17 22 9 12 1018.1 - 38.8
01/07:41am 23.5 25.9 23.0 97 0.3 NE 15 20 8 11 1018.0 - 38.0
01/07:30am 23.4 25.4 22.9 97 0.3 NE 17 22 9 12 1018.1 - 37.8
01/07:27am 23.3 25.2 22.8 97 0.3 NE 17 22 9 12 1018.1 - 37.8
01/07:00am 23.1 25.0 22.8 98 0.2 NE 17 20 9 11 1017.9 - 37.8
01/06:30am 21.6 26.0 21.3 98 0.2 CALM 0 0 0 0 1017.5 - 37.8
01/06:00am 21.3 24.2 21.0 98 0.2 WSW 7 11 4 6 1017.5 1017.5 37.6
01/05:30am 21.2 23.6 20.9 98 0.2 SW 9 13 5 7 1017.3 - 37.6
01/05:00am 21.2 23.9 20.7 97 0.3 W 7 11 4 6 1017.2 - 37.2
01/04:30am 21.2 23.2 20.7 97 0.3 S 11 15 6 8 1017.0 - 37.2
01/04:06am 21.2 22.8 20.7 97 0.3 SW 13 17 7 9 1017.0 - 37.2
01/04:00am 21.2 24.1 20.7 97 0.3 W 6 17 3 9 1017.0 - 37.2
01/03:45am 21.1 23.0 20.6 97 0.3 WSW 11 17 6 9 1017.1 - 36.6
01/03:30am 21.1 22.6 20.6 97 0.3 SW 13 19 7 10 1017.1 - 35.6
01/03:00am 21.3 23.3 20.8 97 0.3 WSW 11 15 6 8 1017.2 1017.2 35.6
01/02:30am 21.4 23.6 21.1 98 0.2 WSW 11 15 6 8 1017.6 - 35.2
01/02:26am 21.3 23.7 20.8 97 0.3 W 9 15 5 8 1017.7 - 35.2
01/02:02am 21.4 23.1 20.9 97 0.3 SW 13 20 7 11 1017.7 - 33.6
01/02:00am 21.5 23.2 21.0 97 0.3 WSW 13 20 7 11 1017.8 - 33.0
01/01:30am 21.6 24.1 21.1 97 0.3 SSW 9 11 5 6 1018.0 - 32.4
01/01:21am 21.6 23.8 21.1 97 0.3 SW 11 15 6 8 1018.1 - 32.2
01/01:00am 21.6 23.4 21.1 97 0.3 SSW 13 17 7 9 1018.2 - 31.6
01/12:47am 21.6 23.0 21.1 97 0.3 SSW 15 19 8 10 1018.3 - 29.6
01/12:34am 21.6 22.6 21.1 97 0.3 SSW 17 20 9 11 1018.3 - 28.8
01/12:30am 21.6 22.6 21.1 97 0.3 SSW 17 24 9 13 1018.3 - 28.8
01/12:08am 21.6 24.1 21.1 97 0.3 S 9 13 5 7 1019.0 - 26.8
01/12:00am 21.5 24.0 21.0 97 0.3 SW 9 13 5 7 1018.8 1018.8 25.8
 
Date/Time
EST
Temp
°C
App
Temp
°C
Dew
Point
Rel
Hum
%
Delta-T
°C
Wind Press
QNH
hPa
Press
MSL
hPa
Rain
since 9 am
mm
Dir
 
Spd
km/h
Gust
km/h
Spd
kts
Gust
kts
30/11:54pm 21.5 24.0 21.0 97 0.3 SW 9 13 5 7 1018.8 - 25.8
30/11:48pm 21.5 23.6 21.0 97 0.3 SW 11 17 6 9 1018.7 - 25.8
30/11:30pm 21.5 23.6 21.0 97 0.3 SW 11 15 6 8 1018.9 - 24.0
30/11:26pm 21.5 23.6 21.0 97 0.3 WSW 11 15 6 8 1019.0 - 23.6
30/11:00pm 21.6 24.1 21.1 97 0.3 SW 9 13 5 7 1019.2 - 23.2
30/10:47pm 21.7 23.9 21.2 97 0.3 SSW 11 13 6 7 1019.4 - 23.2
30/10:30pm 21.7 24.7 21.2 97 0.3 WSW 7 11 4 6 1019.4 - 23.2
30/10:13pm 21.6 24.5 21.1 97 0.3 N 7 9 4 5 1019.5 - 23.2
30/10:00pm 21.6 24.5 21.1 97 0.3 NNE 7 11 4 6 1019.5 - 23.0
30/09:31pm 22.0 24.4 21.5 97 0.3 NE 11 15 6 8 1019.9 - 22.6
30/09:30pm 22.0 24.4 21.5 97 0.3 NE 11 15 6 8 1019.9 - 22.6
30/09:08pm 21.6 23.3 20.9 96 0.5 NNE 13 17 7 9 1020.0 - 22.4
30/09:00pm 21.6 22.9 20.9 96 0.5 NE 15 19 8 10 1020.1 1020.1 22.4
30/08:30pm 21.8 26.2 21.3 97 0.3 CALM 0 0 0 0 1020.0 - 22.4
30/08:00pm 21.8 26.2 21.3 97 0.3 CALM 0 6 0 3 1019.8 - 22.4
30/07:46pm 21.9 25.2 21.4 97 0.3 SSW 6 9 3 5 1019.7 - 22.4
30/07:34pm 21.9 24.2 21.4 97 0.3 S 11 15 6 8 1019.6 - 22.4
30/07:32pm 21.8 24.1 21.3 97 0.3 S 11 15 6 8 1019.6 - 22.2
30/07:30pm 21.8 24.1 21.3 97 0.3 S 11 15 6 8 1019.6 - 22.0
30/07:00pm 21.4 24.4 20.9 97 0.3 SW 6 9 3 5 1019.2 - 21.6
30/06:32pm 21.4 24.3 20.7 96 0.5 WNW 6 9 3 5 1019.1 - 21.6

Other Formats:

Comma delimited format used in spreadsheet applications
http://www.bom.gov.au/fwo/IDQ60801/IDQ60801.94569.axf

JavaScript Object Notation format (JSON) in row-major order
http://www.bom.gov.au/fwo/IDQ60801/IDQ60801.94569.json